Time;durP1;ratioP1;P1;durP2;ratioP2;P2;SDS_P1;SDS_P2;PMS_P1;PMS_P2;Temp;Humidity;BMP_temperature;BMP_pressure;BME280_temperature;BME280_humidity;BME280_pressure;Samples;Min_cycle;Max_cycle;Signal;HPM_P1;HPM_P2
2021/12/08 00:02:21;;;;;;;;;;;;;;;4.26;69.07;98877.66;4966180;28;19919;-81
2021/12/08 00:04:46;;;;;;;;;;;;;;;4.29;68.50;98867.72;4961968;28;19923;-80
2021/12/08 00:07:11;;;;;;;;;;;;;;;4.26;69.32;98877.66;4982442;28;20404;-80
2021/12/08 00:14:52;;;;;;;;;;;;;;;4.33;68.65;98883.13;4967412;28;20499;-80
2021/12/08 00:17:18;;;;;;;;;;;;;;;4.37;68.26;98874.88;4966376;28;20466;-80
2021/12/08 00:19:43;;;;;;;;;;;;;;;4.34;69.76;98877.75;4946199;28;20013;-80
2021/12/08 00:22:08;;;;;;;;;;;;;;;4.35;69.37;98868.94;4944557;28;20449;-79
2021/12/08 00:24:33;;;;;;;;;;;;;;;4.37;70.49;98872.25;4943125;28;20252;-79
2021/12/08 00:26:59;;;;;;;;;;;;;;;4.23;71.40;98870.06;4966607;27;19910;-79
2021/12/08 00:29:24;;;;;;;;;;;;;;;4.22;73.80;98865.84;4970733;28;19912;-80
2021/12/08 00:31:50;;;;;;;;;;;;;;;4.16;73.95;98863.75;4965480;28;20182;-80
2021/12/08 00:34:15;;;;;;;;;;;;;;;4.04;75.06;98861.31;4976915;28;20233;-80
2021/12/08 00:36:43;;;;;;;;;;;;;;;3.94;76.01;98868.38;4946109;28;20200;-79
2021/12/08 00:39:08;;;;;;;;;;;;;;;3.77;77.63;98860.25;4948725;28;20141;-80
2021/12/08 00:41:33;;;;;;;;;;;;;;;3.74;78.71;98865.78;4962913;28;20136;-80
2021/12/08 00:43:58;;;;;;;;;;;;;;;3.69;80.65;98854.91;4970433;28;20269;-80
2021/12/08 00:46:24;;;;;;;;;;;;;;;3.61;80.64;98857.41;4947751;28;19903;-80
2021/12/08 00:48:50;;;;;;;;;;;;;;;3.55;82.01;98868.41;4983038;28;19903;-80
2021/12/08 00:51:16;;;;;;;;;;;;;;;3.57;83.04;98874.34;4968057;28;19915;-80
2021/12/08 00:53:41;;;;;;;;;;;;;;;3.60;82.50;98868.81;4962241;28;19931;-80
2021/12/08 00:56:06;;;;;;;;;;;;;;;3.49;83.32;98863.75;4963761;27;20336;-79
2021/12/08 00:58:32;;;;;;;;;;;;;;;3.55;83.39;98863.16;4989671;27;20897;-80
2021/12/08 01:00:57;;;;;;;;;;;;;;;3.49;84.05;98858.50;4983778;27;20175;-80
2021/12/08 01:03:22;;;;;;;;;;;;;;;3.40;84.41;98862.78;4968572;27;19983;-80
2021/12/08 01:05:49;;;;;;;;;;;;;;;3.38;85.16;98873.34;4981925;27;19964;-80
2021/12/08 01:08:14;;;;;;;;;;;;;;;3.30;85.94;98868.00;4985828;27;20124;-79
2021/12/08 01:10:40;;;;;;;;;;;;;;;3.29;86.41;98871.56;4970191;27;20607;-79
2021/12/08 01:13:07;;;;;;;;;;;;;;;3.39;85.84;98876.81;4965278;28;20740;-80
2021/12/08 01:15:33;;;;;;;;;;;;;;;3.39;85.81;98882.84;4935377;28;20668;-80
2021/12/08 01:17:58;;;;;;;;;;;;;;;3.39;86.21;98877.63;4955708;28;19956;-80
2021/12/08 01:20:23;;;;;;;;;;;;;;;3.38;86.27;98880.38;4976444;28;20193;-80
2021/12/08 01:22:49;;;;;;;;;;;;;;;3.46;86.28;98885.75;4960617;28;20839;-79
2021/12/08 01:25:14;;;;;;;;;;;;;;;3.47;86.02;98879.56;4933427;28;20240;-79
2021/12/08 01:27:39;;;;;;;;;;;;;;;3.50;85.76;98870.59;4952021;27;20279;-80
2021/12/08 01:30:05;;;;;;;;;;;;;;;3.52;85.32;98863.47;4939031;28;20487;-80
2021/12/08 01:32:30;;;;;;;;;;;;;;;3.48;85.80;98869.91;4950723;28;19908;-79
2021/12/08 01:34:56;;;;;;;;;;;;;;;3.55;85.42;98858.78;4933939;28;19912;-79
2021/12/08 01:37:21;;;;;;;;;;;;;;;3.64;85.01;98859.75;4955081;28;20427;-79
2021/12/08 01:39:46;;;;;;;;;;;;;;;3.63;85.21;98852.84;4951180;28;20420;-79
2021/12/08 01:42:26;;;;;;;;;;;;;;;3.57;85.27;98854.22;4934492;28;20742;-80
2021/12/08 01:47:36;;;;;;;;;;;;;;;3.65;85.55;98860.56;4951793;28;20150;-80
2021/12/08 01:50:01;;;;;;;;;;;;;;;3.65;84.95;98852.72;4931674;28;19901;-81
2021/12/08 01:52:26;;;;;;;;;;;;;;;3.65;84.88;98863.16;4951073;28;19915;-79
2021/12/08 01:54:51;;;;;;;;;;;;;;;3.71;84.77;98868.69;4950797;28;19984;-79
2021/12/08 01:57:17;;;;;;;;;;;;;;;3.67;85.07;98869.91;4969695;27;20318;-78
2021/12/08 01:59:42;;;;;;;;;;;;;;;3.69;84.94;98862.75;4978185;27;20340;-78
2021/12/08 02:02:07;;;;;;;;;;;;;;;3.73;85.11;98874.59;4956181;28;20804;-78
2021/12/08 02:04:33;;;;;;;;;;;;;;;3.74;84.33;98871.00;4935509;28;20710;-80
2021/12/08 02:07:00;;;;;;;;;;;;;;;3.81;84.69;98870.44;4935993;28;20460;-78
2021/12/08 02:09:25;;;;;;;;;;;;;;;3.77;84.34;98869.91;4953900;28;19912;-78
2021/12/08 02:11:54;;;;;;;;;;;;;;;3.80;84.11;98866.19;4938798;28;20707;-81
2021/12/08 02:14:19;;;;;;;;;;;;;;;3.80;84.76;98868.81;4950060;28;20242;-81
2021/12/08 02:16:45;;;;;;;;;;;;;;;3.84;84.63;98867.56;4954245;28;20943;-80
2021/12/08 02:19:10;;;;;;;;;;;;;;;3.86;84.52;98873.47;4952486;28;19932;-79
2021/12/08 02:21:37;;;;;;;;;;;;;;;3.92;84.30;98892.06;4935441;28;19911;-81
2021/12/08 02:24:03;;;;;;;;;;;;;;;3.92;84.50;98888.59;4954671;28;20554;-81
2021/12/08 02:26:28;;;;;;;;;;;;;;;4.00;83.46;98890.53;4948993;28;20436;-81
2021/12/08 02:28:54;;;;;;;;;;;;;;;4.03;84.09;98901.53;4943558;28;20134;-80
2021/12/08 02:31:28;;;;;;;;;;;;;;;4.01;83.75;98898.25;4934689;28;19908;-80
2021/12/08 02:47:53;;;;;;;;;;;;;;;4.03;83.80;98904.16;4956510;28;20575;-80
2021/12/08 02:50:19;;;;;;;;;;;;;;;4.07;83.36;98902.09;4969193;28;19908;-79
2021/12/08 02:52:44;;;;;;;;;;;;;;;4.08;83.17;98904.56;4941745;28;20143;-79
2021/12/08 02:55:09;;;;;;;;;;;;;;;4.10;83.21;98897.41;4956204;28;20262;-79
2021/12/08 02:57:35;;;;;;;;;;;;;;;4.10;83.30;98897.41;4943258;28;20245;-79
2021/12/08 03:00:00;;;;;;;;;;;;;;;4.05;83.85;98909.28;4941731;28;20417;-81
2021/12/08 03:02:25;;;;;;;;;;;;;;;4.13;83.33;98907.59;4956852;28;20184;-81
2021/12/08 03:04:50;;;;;;;;;;;;;;;4.10;83.85;98909.66;4960653;28;19911;-80
2021/12/08 03:07:16;;;;;;;;;;;;;;;4.15;83.74;98904.03;4964011;28;19997;-78
2021/12/08 03:09:41;;;;;;;;;;;;;;;4.24;83.55;98911.00;4962412;28;20308;-78
2021/12/08 03:12:06;;;;;;;;;;;;;;;4.13;83.51;98910.22;4955434;28;20188;-78
2021/12/08 03:14:32;;;;;;;;;;;;;;;4.16;84.03;98908.25;4961765;28;20134;-78
2021/12/08 03:16:58;;;;;;;;;;;;;;;4.20;83.10;98909.63;4957657;28;19907;-78
2021/12/08 03:19:25;;;;;;;;;;;;;;;4.20;83.70;98907.03;4933191;28;19904;-78
2021/12/08 03:21:51;;;;;;;;;;;;;;;4.10;84.49;98913.13;4973650;28;20068;-78
2021/12/08 03:24:35;;;;;;;;;;;;;;;4.17;84.17;98910.75;4959506;28;20449;-79
2021/12/08 03:32:06;;;;;;;;;;;;;;;4.28;83.57;98907.13;4938138;28;20000;-80
2021/12/08 03:34:34;;;;;;;;;;;;;;;4.19;84.14;98906.22;4939499;28;19928;-80
2021/12/08 03:36:59;;;;;;;;;;;;;;;4.23;83.87;98909.34;4922010;28;20198;-79
2021/12/08 03:39:25;;;;;;;;;;;;;;;4.21;84.40;98906.06;4949744;28;20273;-77
2021/12/08 03:41:50;;;;;;;;;;;;;;;4.22;84.09;98908.53;4946370;28;20189;-78
2021/12/08 03:44:15;;;;;;;;;;;;;;;4.23;84.03;98907.56;4969352;28;20380;-79
2021/12/08 03:46:42;;;;;;;;;;;;;;;4.23;83.92;98911.97;4969301;28;19919;-79
2021/12/08 03:49:10;;;;;;;;;;;;;;;4.22;84.04;98916.38;4967265;28;20334;-79
2021/12/08 03:51:36;;;;;;;;;;;;;;;4.16;84.27;98918.75;4963318;28;20008;-79
2021/12/08 03:54:01;;;;;;;;;;;;;;;4.21;84.17;98925.19;4963129;28;19932;-79
2021/12/08 03:56:26;;;;;;;;;;;;;;;4.18;84.10;98928.09;4949875;28;20583;-78
2021/12/08 03:58:52;;;;;;;;;;;;;;;4.17;83.96;98939.53;4969247;28;20888;-77
2021/12/08 04:01:17;;;;;;;;;;;;;;;4.20;83.79;98934.03;4953476;28;20255;-80
2021/12/08 04:03:49;;;;;;;;;;;;;;;4.16;83.90;98942.28;4939958;28;20474;-81
2021/12/08 04:06:27;;;;;;;;;;;;;;;4.25;83.67;98944.09;4937327;28;20436;-80
2021/12/08 04:08:56;;;;;;;;;;;;;;;4.26;83.87;98943.13;4937698;28;20332;-79
2021/12/08 04:11:21;;;;;;;;;;;;;;;4.28;84.12;98946.41;4933857;28;19989;-78
2021/12/08 04:13:49;;;;;;;;;;;;;;;4.23;84.32;98949.47;4935557;28;21011;-78
2021/12/08 04:16:16;;;;;;;;;;;;;;;4.21;84.64;98946.16;4950336;28;19912;-79
2021/12/08 04:18:42;;;;;;;;;;;;;;;4.30;83.86;98947.94;4956001;28;20292;-79
2021/12/08 04:21:08;;;;;;;;;;;;;;;4.26;84.08;98937.88;4951928;28;20412;-78
2021/12/08 04:23:36;;;;;;;;;;;;;;;4.28;83.85;98949.84;4956557;28;20644;-79
2021/12/08 04:26:02;;;;;;;;;;;;;;;4.28;84.44;98952.47;4934456;27;20136;-78
2021/12/08 04:28:28;;;;;;;;;;;;;;;4.34;84.23;98951.06;4979320;27;19912;-80
2021/12/08 04:30:55;;;;;;;;;;;;;;;4.37;83.67;98945.59;4958383;28;20223;-78
2021/12/08 04:33:20;;;;;;;;;;;;;;;4.27;84.18;98945.59;4963370;28;19924;-78
2021/12/08 04:35:47;;;;;;;;;;;;;;;4.32;84.14;98945.16;4961503;28;20528;-79
2021/12/08 04:38:13;;;;;;;;;;;;;;;4.31;84.57;98946.13;4957106;28;20244;-78
2021/12/08 04:43:18;;;;;;;;;;;;;;;4.39;84.82;98950.69;4961541;28;19919;-78
2021/12/08 04:46:25;;;;;;;;;;;;;;;4.43;84.44;98937.16;4963513;28;20131;-78
2021/12/08 04:51:19;;;;;;;;;;;;;;;4.39;84.78;98935.78;4978708;28;20466;-79
2021/12/08 05:09:19;;;;;;;;;;;;;;;4.50;84.54;98949.66;4961330;28;20374;-78
2021/12/08 05:11:46;;;;;;;;;;;;;;;4.49;85.39;98950.66;4961281;28;20227;-78
2021/12/08 05:14:18;;;;;;;;;;;;;;;4.47;85.53;98964.72;4968071;28;19916;-78
2021/12/08 05:16:44;;;;;;;;;;;;;;;4.54;85.21;98956.28;4950690;28;19915;-77
2021/12/08 05:19:10;;;;;;;;;;;;;;;4.59;85.15;98951.44;4962509;28;19908;-81
2021/12/08 05:21:37;;;;;;;;;;;;;;;4.69;84.70;98957.47;4961652;28;20151;-80
2021/12/08 05:24:10;;;;;;;;;;;;;;;4.62;84.59;98949.34;4948661;28;20574;-77
2021/12/08 05:26:55;;;;;;;;;;;;;;;4.60;84.83;98960.97;4953821;28;19914;-83
2021/12/08 05:29:22;;;;;;;;;;;;;;;4.66;84.37;98962.19;4981483;27;20300;-79
2021/12/08 05:31:49;;;;;;;;;;;;;;;4.61;84.77;98963.44;4977609;27;19908;-79
2021/12/08 05:34:15;;;;;;;;;;;;;;;4.62;84.65;98961.63;4977242;27;19923;-79
2021/12/08 05:36:40;;;;;;;;;;;;;;;4.57;84.37;98969.94;4958526;27;19933;-79
2021/12/08 05:39:06;;;;;;;;;;;;;;;4.49;85.01;98963.75;4975163;27;19904;-79
2021/12/08 05:41:33;;;;;;;;;;;;;;;4.52;85.01;98972.13;4973209;27;20155;-79
2021/12/08 05:43:58;;;;;;;;;;;;;;;4.52;84.72;98968.69;4975521;27;20204;-79
2021/12/08 05:46:25;;;;;;;;;;;;;;;4.46;84.92;98980.56;4963003;27;19940;-78
2021/12/08 05:48:51;;;;;;;;;;;;;;;4.42;85.86;98980.00;4982662;27;20230;-79
2021/12/08 05:51:23;;;;;;;;;;;;;;;4.51;85.42;98985.38;4977019;27;19949;-78
2021/12/08 05:53:50;;;;;;;;;;;;;;;4.48;85.10;98981.25;4960872;28;20223;-87
2021/12/08 05:56:15;;;;;;;;;;;;;;;4.40;85.81;98992.44;4947672;27;19904;-82
2021/12/08 05:58:41;;;;;;;;;;;;;;;4.44;85.90;98991.19;4937511;27;20542;-83
2021/12/08 06:01:08;;;;;;;;;;;;;;;4.44;85.37;98975.47;4940647;27;20258;-82
2021/12/08 06:03:33;;;;;;;;;;;;;;;4.41;85.68;98978.38;4940537;27;19908;-81
2021/12/08 06:05:59;;;;;;;;;;;;;;;4.41;85.73;98983.63;4948484;27;20200;-83
2021/12/08 06:08:28;;;;;;;;;;;;;;;4.45;85.46;98995.44;4971872;27;20545;-82
2021/12/08 06:10:53;;;;;;;;;;;;;;;4.51;85.08;98977.50;4943713;27;20168;-84
2021/12/08 06:13:18;;;;;;;;;;;;;;;4.54;84.77;98985.94;4952244;27;20106;-85
2021/12/08 06:15:44;;;;;;;;;;;;;;;4.43;85.67;98981.66;4950102;28;20518;-83
2021/12/08 06:18:09;;;;;;;;;;;;;;;4.46;85.35;98983.19;4949024;27;19908;-83
2021/12/08 06:20:35;;;;;;;;;;;;;;;4.52;85.57;98974.75;4952644;28;20530;-84
2021/12/08 06:23:00;;;;;;;;;;;;;;;4.60;84.71;98989.78;4945640;28;19924;-81
2021/12/08 06:25:26;;;;;;;;;;;;;;;4.54;84.67;98982.47;4939499;28;20362;-82
2021/12/08 06:27:51;;;;;;;;;;;;;;;4.51;85.04;98983.56;4942922;28;20197;-81
2021/12/08 06:30:19;;;;;;;;;;;;;;;4.45;85.12;98989.38;4939718;28;19937;-81
2021/12/08 06:32:45;;;;;;;;;;;;;;;4.45;84.84;98994.63;4920207;28;19901;-81
2021/12/08 06:35:11;;;;;;;;;;;;;;;4.56;84.78;99006.75;4935402;28;19985;-81
2021/12/08 06:37:37;;;;;;;;;;;;;;;4.53;84.70;99001.78;4931693;28;19908;-83
2021/12/08 06:40:05;;;;;;;;;;;;;;;4.53;84.59;99004.41;4937336;28;20906;-82
2021/12/08 06:42:32;;;;;;;;;;;;;;;4.49;84.74;99005.66;4974645;28;20712;-81
2021/12/08 06:44:57;;;;;;;;;;;;;;;4.53;84.43;99012.28;4938230;28;20137;-81
2021/12/08 06:47:24;;;;;;;;;;;;;;;4.56;84.64;98998.88;4932502;28;19919;-81
2021/12/08 06:49:50;;;;;;;;;;;;;;;4.54;84.13;99001.66;4952506;28;20261;-81
2021/12/08 06:52:16;;;;;;;;;;;;;;;4.64;84.38;99014.72;4936194;28;20715;-82
2021/12/08 06:54:58;;;;;;;;;;;;;;;4.58;84.42;99021.34;4947608;28;19935;-83
2021/12/08 06:57:31;;;;;;;;;;;;;;;4.58;84.46;99018.75;4946583;28;20477;-84
2021/12/08 07:00:00;;;;;;;;;;;;;;;4.55;84.31;99026.03;4939274;28;20690;-83
2021/12/08 07:05:25;;;;;;;;;;;;;;;4.57;84.50;99034.56;4953867;28;20311;-84
2021/12/08 07:07:53;;;;;;;;;;;;;;;4.58;84.93;99025.75;4942907;28;20249;-82
2021/12/08 07:10:21;;;;;;;;;;;;;;;4.54;85.11;99025.22;4948530;28;20143;-82
2021/12/08 07:12:47;;;;;;;;;;;;;;;4.49;85.20;99032.66;4953389;28;19907;-82
2021/12/08 07:15:13;;;;;;;;;;;;;;;4.44;85.11;99046.19;4932516;28;19911;-82
2021/12/08 07:17:39;;;;;;;;;;;;;;;4.44;85.25;99051.44;4952852;28;20207;-84
2021/12/08 07:20:34;;;;;;;;;;;;;;;4.43;84.78;99048.94;4933501;28;19904;-84
2021/12/08 07:23:00;;;;;;;;;;;;;;;4.38;85.45;99056.38;4960984;28;19915;-80
2021/12/08 07:25:25;;;;;;;;;;;;;;;4.54;84.83;99059.28;4957645;28;19917;-81
2021/12/08 07:27:51;;;;;;;;;;;;;;;4.43;84.43;99056.81;4985516;27;19911;-80
2021/12/08 07:30:21;;;;;;;;;;;;;;;4.49;84.40;99055.41;4973824;28;20096;-82
2021/12/08 07:32:46;;;;;;;;;;;;;;;4.56;84.30;99059.13;4951379;28;20164;-80
2021/12/08 07:35:14;;;;;;;;;;;;;;;4.52;84.24;99058.56;4931331;28;20194;-80
2021/12/08 07:37:39;;;;;;;;;;;;;;;4.48;83.71;99051.97;4933354;28;20109;-81
2021/12/08 07:40:12;;;;;;;;;;;;;;;4.54;84.05;99054.03;4946626;28;19904;-81
2021/12/08 07:42:39;;;;;;;;;;;;;;;4.46;84.27;99048.66;4932906;28;20681;-80
2021/12/08 07:45:11;;;;;;;;;;;;;;;4.52;83.91;99055.13;4924887;28;19939;-79
2021/12/08 07:47:37;;;;;;;;;;;;;;;4.51;83.54;99051.69;4926660;28;20174;-80
2021/12/08 07:50:23;;;;;;;;;;;;;;;4.56;83.49;99057.34;4949713;28;20197;-80
2021/12/08 07:52:48;;;;;;;;;;;;;;;4.48;83.52;99057.19;4949267;28;19904;-82
2021/12/08 07:55:15;;;;;;;;;;;;;;;4.47;83.38;99060.81;4950430;28;20279;-80
2021/12/08 07:57:41;;;;;;;;;;;;;;;4.56;83.57;99069.63;4917044;28;20003;-82
2021/12/08 08:00:11;;;;;;;;;;;;;;;4.57;82.85;99084.34;4971465;28;20575;-82
2021/12/08 08:02:36;;;;;;;;;;;;;;;4.73;82.09;99081.16;4954779;28;19979;-82
2021/12/08 08:05:04;;;;;;;;;;;;;;;4.72;82.27;99090.81;4954784;28;20120;-80
2021/12/08 08:07:30;;;;;;;;;;;;;;;4.72;82.09;99077.72;4964242;28;20144;-81
2021/12/08 08:10:00;;;;;;;;;;;;;;;4.74;81.55;99062.69;4955797;28;19915;-81
2021/12/08 08:12:28;;;;;;;;;;;;;;;4.70;82.21;99066.56;4936379;28;19914;-81
2021/12/08 08:14:55;;;;;;;;;;;;;;;4.68;82.12;99065.84;4955203;27;19927;-81
2021/12/08 08:17:28;;;;;;;;;;;;;;;4.77;81.49;99062.41;4955274;28;19911;-81
2021/12/08 08:19:54;;;;;;;;;;;;;;;4.73;81.49;99068.06;4944874;28;20818;-80
2021/12/08 08:22:26;;;;;;;;;;;;;;;4.67;81.67;99071.22;4953838;28;19915;-83
2021/12/08 08:24:52;;;;;;;;;;;;;;;4.67;81.86;99072.06;4961351;28;20598;-82
2021/12/08 08:27:17;;;;;;;;;;;;;;;4.70;81.64;99071.78;4959684;28;20061;-80
2021/12/08 08:29:42;;;;;;;;;;;;;;;4.75;81.82;99081.84;4955210;28;19908;-81
2021/12/08 08:32:17;;;;;;;;;;;;;;;4.72;80.73;99090.81;4907998;28;20279;-80
2021/12/08 08:34:44;;;;;;;;;;;;;;;4.79;81.49;99083.22;4917379;28;19924;-83
2021/12/08 08:37:10;;;;;;;;;;;;;;;4.85;80.94;99089.69;4917452;28;20016;-82
2021/12/08 08:39:36;;;;;;;;;;;;;;;4.89;81.34;99085.81;4924572;28;20376;-82
2021/12/08 08:42:16;;;;;;;;;;;;;;;4.87;81.32;99083.34;4915924;28;20001;-84
2021/12/08 08:44:43;;;;;;;;;;;;;;;4.87;81.32;99082.53;4916881;28;20140;-84
2021/12/08 08:47:11;;;;;;;;;;;;;;;4.94;81.04;99078.38;4914651;28;20393;-84
2021/12/08 08:49:37;;;;;;;;;;;;;;;4.91;80.66;99074.22;4907052;28;19908;-82
2021/12/08 08:52:10;;;;;;;;;;;;;;;4.91;80.95;99070.81;4920316;28;19916;-83
2021/12/08 08:54:37;;;;;;;;;;;;;;;4.91;80.35;99076.03;4925395;28;20028;-82
2021/12/08 08:57:08;;;;;;;;;;;;;;;4.94;80.46;99088.84;4974147;27;20590;-84
2021/12/08 08:59:34;;;;;;;;;;;;;;;4.96;80.52;99087.75;4950266;28;20020;-83
2021/12/08 09:02:03;;;;;;;;;;;;;;;5.02;80.56;99091.59;4969150;28;20241;-80
2021/12/08 09:04:30;;;;;;;;;;;;;;;5.08;80.80;99096.25;4968643;27;20118;-81
2021/12/08 09:06:56;;;;;;;;;;;;;;;5.18;79.73;99095.44;4966039;27;19904;-80
2021/12/08 09:09:26;;;;;;;;;;;;;;;5.21;78.83;99098.56;4963125;27;20207;-81
2021/12/08 09:11:57;;;;;;;;;;;;;;;5.25;79.07;99099.94;4976962;28;19907;-81
2021/12/08 09:14:24;;;;;;;;;;;;;;;5.24;79.77;99103.53;4995865;27;20117;-78
2021/12/08 09:16:58;;;;;;;;;;;;;;;5.35;79.56;99107.78;4962114;28;19920;-78
2021/12/08 09:19:25;;;;;;;;;;;;;;;5.39;78.98;99122.25;4973697;28;19904;-79
2021/12/08 09:21:59;;;;;;;;;;;;;;;5.41;78.79;99127.34;4972726;28;19913;-78
2021/12/08 09:24:37;;;;;;;;;;;;;;;5.49;78.15;99136.16;4976724;28;20369;-78
2021/12/08 09:27:03;;;;;;;;;;;;;;;5.47;78.23;99127.63;4992135;27;20202;-81
2021/12/08 09:29:30;;;;;;;;;;;;;;;5.45;79.02;99137.41;4996280;28;20183;-77
2021/12/08 09:31:58;;;;;;;;;;;;;;;5.51;77.39;99125.50;5000247;28;19912;-77
2021/12/08 09:34:36;;;;;;;;;;;;;;;5.61;77.33;99121.06;4984240;28;19992;-78
2021/12/08 09:37:03;;;;;;;;;;;;;;;5.65;77.10;99113.72;4993169;28;20412;-80
2021/12/08 09:39:34;;;;;;;;;;;;;;;5.66;76.74;99120.63;5004737;28;20199;-80
2021/12/08 09:42:03;;;;;;;;;;;;;;;5.71;75.96;99117.56;5002493;28;20218;-84
2021/12/08 09:44:32;;;;;;;;;;;;;;;5.77;76.21;99117.81;5021711;27;20237;-83
2021/12/08 09:46:58;;;;;;;;;;;;;;;5.76;75.56;99131.91;5022877;27;20303;-83
2021/12/08 09:49:24;;;;;;;;;;;;;;;5.83;75.28;99127.72;5018702;28;20085;-83
2021/12/08 09:51:50;;;;;;;;;;;;;;;5.83;75.23;99138.22;5011754;28;19919;-84
2021/12/08 09:54:15;;;;;;;;;;;;;;;5.77;75.27;99133.56;5009235;27;20256;-85
2021/12/08 09:56:41;;;;;;;;;;;;;;;5.79;75.01;99142.09;5011914;27;20309;-79
2021/12/08 09:59:07;;;;;;;;;;;;;;;5.80;75.60;99148.19;5009327;27;20301;-82
2021/12/08 10:01:33;;;;;;;;;;;;;;;6.00;75.23;99138.44;5009194;27;19900;-80
2021/12/08 10:03:59;;;;;;;;;;;;;;;6.03;75.02;99138.16;4990724;27;19911;-82
2021/12/08 10:06:25;;;;;;;;;;;;;;;6.06;74.14;99148.34;5004441;27;20148;-82
2021/12/08 10:08:50;;;;;;;;;;;;;;;6.03;74.45;99153.91;4999716;28;20030;-81
2021/12/08 10:11:16;;;;;;;;;;;;;;;6.01;74.95;99150.63;5006379;28;20233;-82
2021/12/08 10:13:41;;;;;;;;;;;;;;;6.14;73.89;99148.44;5000503;28;20242;-81
2021/12/08 10:16:07;;;;;;;;;;;;;;;6.24;74.19;99158.06;5004546;27;19907;-80
2021/12/08 10:18:32;;;;;;;;;;;;;;;6.17;74.27;99150.78;5011990;27;20274;-83
2021/12/08 10:20:57;;;;;;;;;;;;;;;6.23;74.26;99151.16;5003913;27;19974;-83
2021/12/08 10:23:24;;;;;;;;;;;;;;;6.25;74.18;99157.94;5000562;27;20189;-82
2021/12/08 10:25:50;;;;;;;;;;;;;;;6.28;74.00;99167.31;5010478;27;20088;-81
2021/12/08 10:28:26;;;;;;;;;;;;;;;6.32;72.92;99179.19;4989871;27;20123;-82
2021/12/08 10:30:53;;;;;;;;;;;;;;;6.26;73.27;99182.38;5005656;27;20333;-84
2021/12/08 10:33:45;;;;;;;;;;;;;;;6.34;73.56;99182.47;4992279;27;20056;-82
2021/12/08 10:36:23;;;;;;;;;;;;;;;6.31;73.71;99177.53;5007228;27;19956;-78
2021/12/08 10:38:48;;;;;;;;;;;;;;;6.40;72.51;99176.63;5009140;27;19907;-78
2021/12/08 10:41:13;;;;;;;;;;;;;;;6.36;72.79;99177.91;5003348;27;19907;-83
2021/12/08 10:43:38;;;;;;;;;;;;;;;6.24;73.06;99168.59;4976636;28;20202;-81
2021/12/08 10:46:08;;;;;;;;;;;;;;;6.27;73.33;99178.78;4972362;27;19920;-82
2021/12/08 10:48:37;;;;;;;;;;;;;;;6.32;72.67;99169.50;4964013;28;19915;-81
2021/12/08 10:56:36;;;;;;;;;;;;;;;6.33;72.13;99168.53;4969737;27;19914;-80
2021/12/08 10:59:01;;;;;;;;;;;;;;;6.38;72.29;99167.25;4947179;27;19919;-80
2021/12/08 11:01:26;;;;;;;;;;;;;;;6.49;71.88;99165.22;4992644;27;20279;-81
2021/12/08 11:03:59;;;;;;;;;;;;;;;6.51;72.02;99157.19;4996292;28;19919;-78
2021/12/08 11:06:24;;;;;;;;;;;;;;;6.64;72.00;99159.44;5006428;27;20100;-79
2021/12/08 11:08:51;;;;;;;;;;;;;;;6.68;71.74;99166.91;4987606;28;20040;-79
2021/12/08 11:11:22;;;;;;;;;;;;;;;6.78;70.92;99160.72;4996906;27;20195;-77
2021/12/08 11:13:54;;;;;;;;;;;;;;;6.81;70.80;99163.88;5000019;27;19954;-78
2021/12/08 11:16:30;;;;;;;;;;;;;;;6.65;69.90;99167.16;4981205;27;19904;-77
2021/12/08 11:18:58;;;;;;;;;;;;;;;6.66;70.47;99170.66;4996555;28;20210;-77
2021/12/08 11:21:27;;;;;;;;;;;;;;;6.65;70.49;99171.63;5001147;28;20443;-78
2021/12/08 11:23:54;;;;;;;;;;;;;;;6.67;70.18;99172.28;4998513;28;20100;-78
2021/12/08 11:26:23;;;;;;;;;;;;;;;6.70;70.11;99172.81;5005381;27;20814;-78
2021/12/08 11:28:52;;;;;;;;;;;;;;;6.64;70.10;99183.09;5023585;27;20072;-81
2021/12/08 11:31:17;;;;;;;;;;;;;;;6.73;69.77;99176.94;4990170;28;19912;-80
2021/12/08 11:33:48;;;;;;;;;;;;;;;6.88;69.93;99164.06;4984452;27;20174;-82
2021/12/08 11:36:25;;;;;;;;;;;;;;;6.82;69.11;99181.28;4983908;27;20040;-80
2021/12/08 11:38:50;;;;;;;;;;;;;;;6.91;70.00;99176.94;5017710;27;20255;-78
2021/12/08 11:41:23;;;;;;;;;;;;;;;6.84;68.47;99168.00;4974631;27;19903;-78
2021/12/08 11:43:55;;;;;;;;;;;;;;;6.81;68.35;99169.13;4993550;27;20849;-77
2021/12/08 11:46:20;;;;;;;;;;;;;;;6.99;69.15;99174.34;4974028;27;20081;-78
2021/12/08 11:48:50;;;;;;;;;;;;;;;7.05;68.06;99162.44;4988753;27;20023;-77
2021/12/08 11:51:18;;;;;;;;;;;;;;;7.15;67.22;99155.25;4959034;27;20238;-78
2021/12/08 11:53:43;;;;;;;;;;;;;;;7.27;66.12;99170.78;4946290;28;20335;-78
2021/12/08 11:56:08;;;;;;;;;;;;;;;7.26;66.42;99164.69;4962226;28;20215;-78
2021/12/08 11:58:33;;;;;;;;;;;;;;;7.29;66.55;99177.56;4964773;27;19967;-77
2021/12/08 12:01:01;;;;;;;;;;;;;;;7.21;66.69;99166.97;4954068;27;20326;-77
2021/12/08 12:03:27;;;;;;;;;;;;;;;7.34;67.09;99169.19;4965391;27;20557;-78
2021/12/08 12:05:52;;;;;;;;;;;;;;;7.37;66.45;99172.34;4965170;27;19908;-77
2021/12/08 12:08:18;;;;;;;;;;;;;;;7.09;66.32;99169.00;4974388;27;20705;-79
2021/12/08 12:10:44;;;;;;;;;;;;;;;7.24;66.71;99169.28;4950016;27;19908;-77
2021/12/08 12:13:10;;;;;;;;;;;;;;;7.27;66.67;99176.88;4972068;27;19907;-76
2021/12/08 12:15:44;;;;;;;;;;;;;;;7.28;66.10;99165.38;4973559;27;20247;-78
2021/12/08 12:18:09;;;;;;;;;;;;;;;7.48;65.93;99165.97;4965304;28;19915;-78
2021/12/08 12:20:38;;;;;;;;;;;;;;;7.34;65.45;99153.41;4970602;28;20393;-80
2021/12/08 12:23:03;;;;;;;;;;;;;;;7.45;65.42;99160.22;4949583;28;20580;-79
2021/12/08 12:25:29;;;;;;;;;;;;;;;7.33;65.87;99162.25;4980867;27;20654;-77
2021/12/08 12:28:00;;;;;;;;;;;;;;;7.32;65.04;99166.72;4976634;27;19904;-80
2021/12/08 12:30:25;;;;;;;;;;;;;;;7.33;65.73;99164.91;4969215;27;19911;-77
2021/12/08 12:32:51;;;;;;;;;;;;;;;7.39;65.51;99174.81;4975219;27;19936;-78
2021/12/08 12:35:28;;;;;;;;;;;;;;;7.43;65.40;99173.53;4969650;27;20290;-77
2021/12/08 12:38:19;;;;;;;;;;;;;;;7.43;64.58;99170.91;4992236;27;20469;-78
2021/12/08 12:40:47;;;;;;;;;;;;;;;7.48;65.37;99176.50;4957306;27;20234;-77
2021/12/08 12:43:22;;;;;;;;;;;;;;;7.67;64.32;99183.38;4957750;27;20441;-77
2021/12/08 12:45:47;;;;;;;;;;;;;;;7.85;63.62;99187.72;4953109;28;20182;-76
2021/12/08 12:48:19;;;;;;;;;;;;;;;7.76;63.57;99178.16;4964896;28;20022;-76
2021/12/08 12:50:54;;;;;;;;;;;;;;;7.73;63.65;99179.28;4979785;27;20240;-78
2021/12/08 12:53:39;;;;;;;;;;;;;;;7.55;63.95;99176.72;4955762;28;19924;-79
2021/12/08 12:56:08;;;;;;;;;;;;;;;7.51;63.69;99186.72;4977344;27;20249;-76
2021/12/08 12:58:42;;;;;;;;;;;;;;;7.42;64.46;99185.03;4978899;28;20852;-76
2021/12/08 13:01:09;;;;;;;;;;;;;;;7.40;65.25;99181.72;4982036;27;20615;-77
2021/12/08 13:03:36;;;;;;;;;;;;;;;7.31;64.79;99183.47;4979842;27;20392;-78
2021/12/08 13:06:01;;;;;;;;;;;;;;;7.41;64.83;99180.75;4980287;27;19911;-79
2021/12/08 13:08:30;;;;;;;;;;;;;;;7.59;64.94;99172.78;4982770;27;20320;-78
2021/12/08 13:10:56;;;;;;;;;;;;;;;7.64;64.90;99174.94;4962502;28;20526;-79
2021/12/08 13:13:21;;;;;;;;;;;;;;;7.59;64.28;99174.56;4937674;28;20052;-78
2021/12/08 13:15:48;;;;;;;;;;;;;;;7.49;63.84;99183.44;4964306;27;19940;-78
2021/12/08 13:18:20;;;;;;;;;;;;;;;7.44;65.02;99190.13;4978871;27;19916;-78
2021/12/08 13:20:46;;;;;;;;;;;;;;;7.32;65.03;99198.28;4972114;28;19916;-78
2021/12/08 13:23:14;;;;;;;;;;;;;;;7.27;64.92;99194.47;4969621;27;20330;-77
2021/12/08 13:28:09;;;;;;;;;;;;;;;7.40;64.46;99202.75;4966104;28;20168;-79
2021/12/08 13:30:34;;;;;;;;;;;;;;;7.29;64.81;99203.03;4963703;27;20240;-79
2021/12/08 13:33:08;;;;;;;;;;;;;;;7.26;64.39;99204.16;4972967;28;20286;-79
2021/12/08 13:35:34;;;;;;;;;;;;;;;7.21;64.84;99196.72;4959470;28;20181;-80
2021/12/08 13:37:59;;;;;;;;;;;;;;;7.37;63.85;99200.44;4974638;28;20018;-77
2021/12/08 13:40:41;;;;;;;;;;;;;;;7.38;64.15;99202.09;4977898;27;20354;-78
2021/12/08 13:43:06;;;;;;;;;;;;;;;7.27;64.64;99210.25;4993105;27;20313;-77
2021/12/08 13:45:44;;;;;;;;;;;;;;;7.23;64.31;99214.97;4962116;27;20161;-78
2021/12/08 13:48:09;;;;;;;;;;;;;;;7.22;64.04;99218.63;4958263;28;20301;-77
2021/12/08 13:50:35;;;;;;;;;;;;;;;7.33;64.40;99214.88;4939288;28;19961;-78
2021/12/08 13:53:06;;;;;;;;;;;;;;;7.37;63.62;99224.13;4936840;28;20423;-78
2021/12/08 13:55:31;;;;;;;;;;;;;;;7.50;62.21;99221.94;4981462;28;20067;-78
2021/12/08 13:58:02;;;;;;;;;;;;;;;7.42;61.95;99216.63;4953515;28;20304;-76
2021/12/08 14:00:30;;;;;;;;;;;;;;;7.21;63.14;99214.31;4963956;28;19912;-77